Time;durP1;ratioP1;P1;durP2;ratioP2;P2;SDS_P1;SDS_P2;PMS_P1;PMS_P2;Temp;Humidity;BMP_temperature;BMP_pressure;BME280_temperature;BME280_humidity;BME280_pressure;Samples;Min_cycle;Max_cycle;Signal;HPM_P1;HPM_P2
2021/12/27 00:01:56;;;;;;;6.80;5.07;;;15.30;99.90;;;;;;4196811;28;20219;-74
2021/12/27 00:03:59;;;;;;;5.40;4.60;;;15.20;99.90;;;;;;4196637;28;20215;-74
2021/12/27 00:06:01;;;;;;;6.73;4.87;;;15.20;99.90;;;;;;4196722;28;20211;-74
2021/12/27 00:08:04;;;;;;;7.50;5.73;;;15.20;99.90;;;;;;4192388;28;20264;-74
2021/12/27 00:10:07;;;;;;;7.53;5.27;;;15.20;99.90;;;;;;4193220;28;20211;-74
2021/12/27 00:12:10;;;;;;;6.43;4.77;;;15.20;99.90;;;;;;4196331;28;20613;-74
2021/12/27 00:14:12;;;;;;;7.43;4.93;;;15.20;99.90;;;;;;4196773;28;20277;-73
2021/12/27 00:16:15;;;;;;;6.33;4.83;;;15.20;99.90;;;;;;4196383;28;20261;-74
2021/12/27 00:18:19;;;;;;;5.80;4.90;;;15.20;99.90;;;;;;4195852;28;20268;-74
2021/12/27 00:20:22;;;;;;;6.53;4.90;;;15.20;99.90;;;;;;4196105;28;20261;-74
2021/12/27 00:22:24;;;;;;;6.47;4.60;;;15.20;99.90;;;;;;4196169;28;20280;-74
2021/12/27 00:24:27;;;;;;;6.20;5.10;;;15.20;99.90;;;;;;4196305;28;20351;-74
2021/12/27 00:26:29;;;;;;;6.47;4.70;;;15.30;99.90;;;;;;4196175;28;20280;-74
2021/12/27 00:28:33;;;;;;;6.40;4.68;;;15.20;99.90;;;;;;4198940;28;20211;-74
2021/12/27 00:30:35;;;;;;;5.33;4.43;;;15.20;99.90;;;;;;4199316;28;20621;-74
2021/12/27 00:32:37;;;;;;;6.63;4.97;;;15.20;99.90;;;;;;4199189;28;20273;-74
2021/12/27 00:34:41;;;;;;;7.97;5.43;;;15.20;99.90;;;;;;4199629;28;20272;-74
2021/12/27 00:36:43;;;;;;;6.77;5.17;;;15.20;99.90;;;;;;4199553;28;20214;-74
2021/12/27 00:38:46;;;;;;;6.00;4.97;;;15.20;99.90;;;;;;4199661;28;20215;-74
2021/12/27 00:40:48;;;;;;;6.03;4.53;;;15.20;99.90;;;;;;4199435;28;20215;-74
2021/12/27 00:42:51;;;;;;;6.87;4.83;;;15.20;99.90;;;;;;4199135;28;20257;-74
2021/12/27 00:44:53;;;;;;;6.10;5.03;;;15.20;99.90;;;;;;4199385;28;20268;-74
2021/12/27 00:46:56;;;;;;;6.50;4.80;;;15.20;99.90;;;;;;4199167;28;20218;-74
2021/12/27 00:48:58;;;;;;;5.33;4.50;;;15.20;99.90;;;;;;4199456;28;20260;-74
2021/12/27 00:51:02;;;;;;;6.23;4.63;;;15.20;99.90;;;;;;4199274;28;20272;-73
2021/12/27 00:53:05;;;;;;;6.73;5.27;;;15.20;99.90;;;;;;4199103;28;20234;-74
2021/12/27 00:55:10;;;;;;;7.07;5.40;;;15.20;99.90;;;;;;4199053;28;20272;-74
2021/12/27 00:57:12;;;;;;;5.97;4.70;;;15.20;99.90;;;;;;4198886;28;20261;-74
2021/12/27 00:59:15;;;;;;;7.00;4.90;;;15.20;99.90;;;;;;4199054;28;20675;-74
2021/12/27 01:01:17;;;;;;;7.03;5.43;;;15.20;99.90;;;;;;4199029;28;20261;-74
2021/12/27 01:03:20;;;;;;;6.20;5.07;;;15.20;99.90;;;;;;4199078;28;20253;-74
2021/12/27 01:05:25;;;;;;;8.00;5.00;;;15.20;99.90;;;;;;4198932;28;20260;-74
2021/12/27 01:07:29;;;;;;;7.33;5.37;;;15.20;99.90;;;;;;4199217;28;20265;-74
2021/12/27 01:09:40;;;;;;;7.20;5.00;;;15.20;99.90;;;;;;4198842;28;20223;-74
2021/12/27 01:11:58;;;;;;;10.30;5.83;;;15.20;99.90;;;;;;4199397;28;20207;-74
2021/12/27 01:14:04;;;;;;;6.63;5.10;;;15.20;99.90;;;;;;4198610;28;20308;-74
2021/12/27 01:16:11;;;;;;;6.77;5.00;;;15.20;99.90;;;;;;4198874;28;20215;-74
2021/12/27 01:18:14;;;;;;;6.47;4.80;;;15.10;99.90;;;;;;4198884;28;20268;-74
2021/12/27 01:20:23;;;;;;;6.50;5.17;;;15.10;99.90;;;;;;4198461;28;20211;-74
2021/12/27 01:22:25;;;;;;;7.03;5.40;;;15.20;99.90;;;;;;4199020;28;20268;-74
2021/12/27 01:24:29;;;;;;;6.13;5.23;;;15.20;99.90;;;;;;4198563;28;20612;-74
2021/12/27 01:26:31;;;;;;;7.23;5.33;;;15.20;99.90;;;;;;4198604;28;20215;-74
2021/12/27 01:28:34;;;;;;;6.47;5.30;;;15.20;99.90;;;;;;4198437;28;20214;-74
2021/12/27 01:30:45;;;;;;;6.43;4.73;;;15.20;99.90;;;;;;4198742;28;20219;-74
2021/12/27 01:32:51;;;;;;;7.73;5.40;;;15.20;99.90;;;;;;4187985;28;20646;-71
2021/12/27 01:34:53;;;;;;;7.57;5.30;;;15.10;99.90;;;;;;4181762;28;20765;-72
2021/12/27 01:36:57;;;;;;;8.17;5.37;;;15.20;99.90;;;;;;4181952;28;20934;-71
2021/12/27 01:38:59;;;;;;;7.33;5.07;;;15.20;99.90;;;;;;4181352;28;20219;-71
2021/12/27 01:41:05;;;;;;;7.97;5.47;;;15.20;99.90;;;;;;4181582;28;20624;-72
2021/12/27 01:43:10;;;;;;;6.93;4.83;;;15.20;99.90;;;;;;4181588;28;20216;-72
2021/12/27 01:45:13;;;;;;;7.30;5.43;;;15.10;99.90;;;;;;4181539;28;20733;-71
2021/12/27 01:47:15;;;;;;;7.60;5.23;;;15.20;99.90;;;;;;4181572;28;20349;-71
2021/12/27 01:49:17;;;;;;;8.27;5.67;;;15.10;99.90;;;;;;4181392;28;20723;-72
2021/12/27 01:51:20;;;;;;;8.93;6.07;;;15.10;99.90;;;;;;4181643;28;20688;-71
2021/12/27 01:53:23;;;;;;;7.27;5.67;;;15.10;99.90;;;;;;4181536;28;20243;-72
2021/12/27 01:55:26;;;;;;;6.83;5.50;;;15.20;99.90;;;;;;4181485;28;20219;-72
2021/12/27 01:57:29;;;;;;;8.43;6.17;;;15.20;99.90;;;;;;4180752;28;20727;-71
2021/12/27 01:59:32;;;;;;;7.97;5.57;;;15.10;99.90;;;;;;4194868;28;20257;-71
2021/12/27 02:01:34;;;;;;;8.80;5.57;;;15.10;99.90;;;;;;4197518;28;20261;-71
2021/12/27 02:03:40;;;;;;;7.93;5.80;;;15.10;99.90;;;;;;4197579;28;20256;-71
2021/12/27 02:05:43;;;;;;;9.67;6.20;;;15.20;99.90;;;;;;4197868;28;20215;-72
2021/12/27 02:07:45;;;;;;;8.40;5.67;;;15.20;99.90;;;;;;4197764;28;20219;-71
2021/12/27 02:09:59;;;;;;;9.53;6.93;;;15.20;99.90;;;;;;4197939;28;20240;-71
2021/12/27 02:12:01;;;;;;;7.73;5.90;;;15.20;99.90;;;;;;4197659;28;20215;-72
2021/12/27 02:14:08;;;;;;;8.27;5.77;;;15.10;99.90;;;;;;4197725;28;20626;-71
2021/12/27 02:16:11;;;;;;;8.03;5.47;;;15.10;99.90;;;;;;4197473;28;20219;-71
2021/12/27 02:18:14;;;;;;;8.23;6.10;;;15.20;99.90;;;;;;4197747;28;20223;-71
2021/12/27 02:20:20;;;;;;;9.47;5.90;;;15.10;99.90;;;;;;4197900;28;20269;-71
2021/12/27 02:22:23;;;;;;;7.77;5.87;;;15.10;99.90;;;;;;4197621;28;20261;-71
2021/12/27 02:24:25;;;;;;;7.97;5.80;;;15.20;99.90;;;;;;4197728;28;20260;-71
2021/12/27 02:26:27;;;;;;;8.40;5.70;;;15.20;99.90;;;;;;4197229;28;20614;-71
2021/12/27 02:28:30;;;;;;;8.50;6.30;;;15.20;99.90;;;;;;4197298;28;20223;-71
2021/12/27 02:30:33;;;;;;;6.73;5.50;;;15.10;99.90;;;;;;4185263;28;20212;-71
2021/12/27 02:32:45;;;;;;;7.23;5.90;;;15.10;99.90;;;;;;4180694;28;20239;-71
2021/12/27 02:34:48;;;;;;;8.93;6.13;;;15.20;99.90;;;;;;4180336;28;20239;-71
2021/12/27 02:36:52;;;;;;;7.77;6.40;;;15.20;99.90;;;;;;4180484;28;20250;-71
2021/12/27 02:38:54;;;;;;;8.53;5.80;;;15.10;99.90;;;;;;4180800;28;20270;-71
2021/12/27 02:40:57;;;;;;;7.70;5.60;;;15.10;99.90;;;;;;4180871;28;20215;-71
2021/12/27 02:43:01;;;;;;;6.60;5.53;;;15.10;99.90;;;;;;4180560;28;20211;-71
2021/12/27 02:45:04;;;;;;;8.00;5.70;;;15.10;99.90;;;;;;4180526;28;20208;-71
2021/12/27 02:47:06;;;;;;;7.67;5.73;;;15.10;99.90;;;;;;4180531;28;20215;-71
2021/12/27 02:49:09;;;;;;;11.17;6.90;;;15.10;99.90;;;;;;4180289;28;20215;-71
2021/12/27 02:51:11;;;;;;;8.40;6.07;;;15.10;99.90;;;;;;4180324;28;20266;-71
2021/12/27 02:53:16;;;;;;;6.90;5.50;;;15.20;99.90;;;;;;4180724;28;20211;-71
2021/12/27 02:55:19;;;;;;;9.50;6.27;;;15.10;99.90;;;;;;4180498;28;20228;-71
2021/12/27 02:57:21;;;;;;;8.03;5.97;;;15.20;99.90;;;;;;4180245;28;20219;-71
2021/12/27 02:59:23;;;;;;;8.83;5.93;;;15.20;99.90;;;;;;4180580;28;20219;-71
2021/12/27 03:01:26;;;;;;;8.30;5.63;;;15.10;99.90;;;;;;4180082;28;20227;-71
2021/12/27 03:03:29;;;;;;;7.73;6.00;;;15.20;99.90;;;;;;4180559;28;20219;-72
2021/12/27 03:05:32;;;;;;;8.67;5.40;;;15.10;99.90;;;;;;4180398;28;20269;-71
2021/12/27 03:07:35;;;;;;;9.27;5.63;;;15.20;99.90;;;;;;4180429;28;20918;-72
2021/12/27 03:09:40;;;;;;;9.17;6.10;;;15.10;99.90;;;;;;4180179;28;20215;-71
2021/12/27 03:11:43;;;;;;;8.67;6.17;;;15.10;99.90;;;;;;4180375;28;20227;-71
2021/12/27 03:13:46;;;;;;;7.30;5.60;;;15.10;99.90;;;;;;4180317;28;20559;-71
2021/12/27 03:15:52;;;;;;;8.90;5.77;;;15.10;99.90;;;;;;4180159;28;20281;-71
2021/12/27 03:17:56;;;;;;;9.97;6.00;;;15.10;99.90;;;;;;4180028;28;20267;-71
2021/12/27 03:19:58;;;;;;;8.27;5.70;;;15.20;99.90;;;;;;4180168;28;20262;-72
2021/12/27 03:22:00;;;;;;;8.00;5.73;;;15.10;99.90;;;;;;4180132;28;20219;-71
2021/12/27 03:24:03;;;;;;;7.87;5.93;;;15.10;99.90;;;;;;4180392;28;20216;-71
2021/12/27 03:26:08;;;;;;;7.97;5.80;;;15.10;99.90;;;;;;4180378;28;20211;-71
2021/12/27 03:28:10;;;;;;;8.17;5.77;;;15.10;99.90;;;;;;4180067;28;20270;-71
2021/12/27 03:30:15;;;;;;;8.47;6.43;;;15.10;99.90;;;;;;4180082;28;20215;-71
2021/12/27 03:32:20;;;;;;;7.57;5.97;;;15.10;99.90;;;;;;4179745;28;20231;-71
2021/12/27 03:34:22;;;;;;;8.43;5.70;;;15.10;99.90;;;;;;4179811;28;20285;-71
2021/12/27 03:36:25;;;;;;;8.30;5.80;;;15.10;99.90;;;;;;4179881;28;20219;-71
2021/12/27 03:38:29;;;;;;;8.03;5.97;;;15.10;99.90;;;;;;4179523;28;20215;-71
2021/12/27 03:40:31;;;;;;;7.80;6.20;;;15.10;99.90;;;;;;4179906;28;20228;-71
2021/12/27 03:42:35;;;;;;;9.13;6.10;;;15.10;99.90;;;;;;4180451;28;20213;-71
2021/12/27 03:44:37;;;;;;;8.43;5.80;;;15.10;99.90;;;;;;4176964;28;20216;-72
2021/12/27 03:46:39;;;;;;;9.57;6.30;;;15.10;99.90;;;;;;4187463;28;20257;-71
2021/12/27 03:48:42;;;;;;;8.57;6.17;;;15.10;99.90;;;;;;4196520;28;20261;-71
2021/12/27 03:50:44;;;;;;;8.87;6.47;;;15.10;99.90;;;;;;4196231;28;20215;-71
2021/12/27 03:52:47;;;;;;;7.90;5.70;;;15.10;99.90;;;;;;4196681;28;20211;-71
2021/12/27 03:54:50;;;;;;;8.47;6.23;;;15.10;99.90;;;;;;4196483;28;20235;-71
2021/12/27 03:56:52;;;;;;;9.50;5.80;;;15.10;99.90;;;;;;4196821;28;20215;-71
2021/12/27 03:58:58;;;;;;;8.07;5.70;;;15.10;99.90;;;;;;4196231;28;20211;-71
2021/12/27 04:01:14;;;;;;;8.93;6.03;;;15.10;99.90;;;;;;4197116;28;20616;-71
2021/12/27 04:03:17;;;;;;;7.67;5.53;;;15.10;99.90;;;;;;4200143;28;20624;-72
2021/12/27 04:05:21;;;;;;;7.90;5.60;;;15.10;99.90;;;;;;4199855;28;20961;-71
2021/12/27 04:07:27;;;;;;;8.03;5.77;;;15.10;99.90;;;;;;4200110;28;20655;-71
2021/12/27 04:09:29;;;;;;;7.60;5.53;;;15.10;99.90;;;;;;4199899;28;20219;-71
2021/12/27 04:11:32;;;;;;;7.40;5.30;;;15.10;99.90;;;;;;4199703;28;20627;-72
2021/12/27 04:13:35;;;;;;;7.90;5.67;;;15.10;99.90;;;;;;4199612;28;20611;-71
2021/12/27 04:15:39;;;;;;;7.67;5.77;;;15.10;99.90;;;;;;4199650;28;20235;-71
2021/12/27 04:17:42;;;;;;;9.57;5.90;;;15.10;99.90;;;;;;4199575;28;20222;-71
2021/12/27 04:19:44;;;;;;;8.13;5.53;;;15.10;99.90;;;;;;4199544;28;20645;-72
2021/12/27 04:21:47;;;;;;;7.70;5.10;;;15.10;99.90;;;;;;4199799;28;20215;-71
2021/12/27 04:23:49;;;;;;;7.97;6.10;;;15.00;99.90;;;;;;4199205;28;20269;-71
2021/12/27 04:25:51;;;;;;;8.87;5.80;;;15.00;99.90;;;;;;4199210;28;20219;-71
2021/12/27 04:27:53;;;;;;;7.67;5.77;;;15.00;99.90;;;;;;4199542;28;20215;-71
2021/12/27 04:29:56;;;;;;;8.43;5.80;;;15.00;99.90;;;;;;4192587;28;20204;-71
2021/12/27 04:31:59;;;;;;;8.07;5.40;;;15.00;99.90;;;;;;4182890;28;20227;-71
2021/12/27 04:34:02;;;;;;;6.83;5.60;;;15.00;99.90;;;;;;4183080;28;20237;-72
2021/12/27 04:36:05;;;;;;;7.57;5.67;;;15.00;99.90;;;;;;4182443;28;20270;-71
2021/12/27 04:38:07;;;;;;;7.53;5.33;;;15.00;99.90;;;;;;4182522;28;20270;-71
2021/12/27 04:40:13;;;;;;;9.77;6.20;;;15.10;99.90;;;;;;4182745;28;20294;-71
2021/12/27 04:42:16;;;;;;;7.83;5.20;;;15.00;99.90;;;;;;4182909;28;20216;-71
2021/12/27 04:44:18;;;;;;;9.10;5.73;;;15.10;99.90;;;;;;4182450;28;20215;-71
2021/12/27 04:46:20;;;;;;;7.53;5.27;;;15.10;99.90;;;;;;4182352;28;20212;-71
2021/12/27 04:48:26;;;;;;;6.87;5.37;;;15.10;99.90;;;;;;4182603;28;20338;-71
2021/12/27 04:50:28;;;;;;;6.87;5.00;;;15.00;99.90;;;;;;4182483;28;20216;-71
2021/12/27 04:52:31;;;;;;;7.57;5.20;;;15.00;99.90;;;;;;4182327;28;20265;-71
2021/12/27 04:54:33;;;;;;;8.33;5.43;;;15.00;99.90;;;;;;4182241;28;20216;-71
2021/12/27 04:56:35;;;;;;;8.00;5.37;;;15.10;99.90;;;;;;4182076;28;20297;-72
2021/12/27 04:58:38;;;;;;;9.30;6.17;;;15.00;99.90;;;;;;4182279;28;20219;-71
2021/12/27 05:00:40;;;;;;;6.63;4.70;;;15.10;99.90;;;;;;4182327;28;20212;-72
2021/12/27 05:02:42;;;;;;;6.47;5.30;;;15.00;99.90;;;;;;4182468;28;20273;-72
2021/12/27 05:04:46;;;;;;;7.80;5.83;;;15.00;99.90;;;;;;4182108;28;20216;-72
2021/12/27 05:06:48;;;;;;;7.47;5.10;;;15.00;99.90;;;;;;4182334;28;20269;-71
2021/12/27 05:08:53;;;;;;;7.70;5.23;;;15.10;99.90;;;;;;4182284;28;20549;-72
2021/12/27 05:10:55;;;;;;;8.47;5.47;;;15.00;99.90;;;;;;4182169;28;20241;-71
2021/12/27 05:12:58;;;;;;;6.43;4.80;;;15.00;99.90;;;;;;4181287;28;20223;-72
2021/12/27 05:15:00;;;;;;;7.10;5.50;;;15.00;99.90;;;;;;4181981;28;20270;-72
2021/12/27 05:17:03;;;;;;;8.03;5.33;;;15.10;99.90;;;;;;4182445;28;20266;-71
2021/12/27 05:19:05;;;;;;;5.43;4.43;;;15.10;99.90;;;;;;4182179;28;20246;-72
2021/12/27 05:21:09;;;;;;;7.47;5.03;;;15.00;99.90;;;;;;4182034;28;20219;-71
2021/12/27 05:23:11;;;;;;;6.37;4.80;;;15.00;99.90;;;;;;4181838;28;20270;-72
2021/12/27 05:25:16;;;;;;;7.03;4.80;;;15.10;99.90;;;;;;4182005;28;20215;-71
2021/12/27 05:27:18;;;;;;;7.30;5.30;;;15.10;99.90;;;;;;4181849;28;20212;-71
2021/12/27 05:29:20;;;;;;;6.93;4.90;;;15.10;99.90;;;;;;4181776;28;20274;-72
2021/12/27 05:31:23;;;;;;;6.90;4.93;;;15.10;99.90;;;;;;4181601;28;20216;-72
2021/12/27 05:33:25;;;;;;;6.50;5.30;;;15.10;99.90;;;;;;4174633;28;20231;-71
2021/12/27 05:35:28;;;;;;;8.17;4.63;;;15.10;99.90;;;;;;4181285;28;20730;-72
2021/12/27 05:37:32;;;;;;;7.57;4.77;;;15.10;99.90;;;;;;4186333;28;20223;-72
2021/12/27 05:39:35;;;;;;;6.43;4.90;;;15.10;99.90;;;;;;4185933;28;20211;-71
2021/12/27 05:41:37;;;;;;;7.57;4.60;;;15.00;99.90;;;;;;4185080;28;20220;-71
2021/12/27 05:43:40;;;;;;;6.40;4.47;;;15.00;99.90;;;;;;4186956;28;20215;-72
2021/12/27 05:45:42;;;;;;;6.83;5.07;;;15.00;99.90;;;;;;4185527;28;20215;-72
2021/12/27 05:47:45;;;;;;;8.43;4.60;;;15.00;99.90;;;;;;4186515;28;20237;-72
2021/12/27 05:49:47;;;;;;;7.40;4.80;;;15.00;99.90;;;;;;4185358;28;20258;-71
2021/12/27 05:51:50;;;;;;;7.40;4.53;;;15.00;99.90;;;;;;4182965;28;20223;-72
2021/12/27 05:53:54;;;;;;;5.93;4.43;;;15.00;99.90;;;;;;4183974;28;20219;-71
2021/12/27 05:55:56;;;;;;;6.13;4.93;;;15.00;99.90;;;;;;4183040;28;20228;-72
2021/12/27 05:57:59;;;;;;;5.60;4.40;;;14.90;99.90;;;;;;4184710;28;20261;-71
2021/12/27 06:00:01;;;;;;;8.03;4.70;;;14.90;99.90;;;;;;4184656;28;20216;-71
2021/12/27 06:02:04;;;;;;;7.40;4.60;;;14.90;99.90;;;;;;4183009;28;20616;-71
2021/12/27 06:04:06;;;;;;;6.40;5.07;;;15.00;99.90;;;;;;4183615;28;20270;-71
2021/12/27 06:06:11;;;;;;;6.43;4.90;;;15.00;99.90;;;;;;4183532;28;20262;-71
2021/12/27 06:08:13;;;;;;;6.87;4.53;;;15.10;99.90;;;;;;4182212;28;20273;-71
2021/12/27 06:10:19;;;;;;;6.57;4.47;;;15.10;99.90;;;;;;4181991;28;20215;-71
2021/12/27 06:12:21;;;;;;;6.07;4.60;;;15.10;99.90;;;;;;4180633;28;20230;-72
2021/12/27 06:14:24;;;;;;;6.03;4.37;;;15.20;99.90;;;;;;4182386;28;20546;-71
2021/12/27 06:16:26;;;;;;;6.20;4.33;;;15.10;99.90;;;;;;4185822;28;20574;-71
2021/12/27 06:18:28;;;;;;;5.10;4.13;;;15.20;99.90;;;;;;4185127;28;20262;-71
2021/12/27 06:20:30;;;;;;;6.90;4.80;;;15.20;99.90;;;;;;4185175;28;20224;-71
2021/12/27 06:22:33;;;;;;;6.23;4.60;;;15.30;99.90;;;;;;4184511;28;20219;-72
2021/12/27 06:24:35;;;;;;;6.23;4.27;;;15.30;99.90;;;;;;4185407;28;20595;-72
2021/12/27 06:26:39;;;;;;;6.67;4.53;;;15.30;99.90;;;;;;4184996;28;20216;-72
2021/12/27 06:28:42;;;;;;;6.63;4.53;;;15.30;99.90;;;;;;4182008;28;20228;-71
2021/12/27 06:30:44;;;;;;;5.40;3.97;;;15.40;99.90;;;;;;4184546;28;20265;-71
2021/12/27 06:32:48;;;;;;;6.80;4.37;;;15.40;99.90;;;;;;4186569;28;20238;-71
2021/12/27 06:34:51;;;;;;;6.03;4.33;;;15.40;99.90;;;;;;4186654;28;20207;-71
2021/12/27 06:36:53;;;;;;;7.00;4.57;;;15.40;99.90;;;;;;4183736;28;20289;-71
2021/12/27 06:38:55;;;;;;;5.97;4.03;;;15.40;99.90;;;;;;4186151;28;20272;-71
2021/12/27 06:41:00;;;;;;;6.67;4.47;;;15.40;99.90;;;;;;4185823;28;20628;-72
2021/12/27 06:43:04;;;;;;;6.67;3.93;;;15.50;99.90;;;;;;4184700;28;20610;-71
2021/12/27 06:45:07;;;;;;;6.20;4.30;;;15.50;99.90;;;;;;4183930;28;20282;-71
2021/12/27 06:47:09;;;;;;;5.73;4.53;;;15.50;99.90;;;;;;4185256;28;20261;-72
2021/12/27 06:49:11;;;;;;;5.63;3.80;;;15.50;99.90;;;;;;4184947;28;20261;-71
2021/12/27 06:51:14;;;;;;;6.77;3.87;;;15.50;99.90;;;;;;4185541;28;20219;-72
2021/12/27 06:53:17;;;;;;;7.37;4.40;;;15.60;99.90;;;;;;4184709;28;20215;-72
2021/12/27 06:55:19;;;;;;;5.25;3.88;;;15.60;99.90;;;;;;4184335;28;20215;-71
2021/12/27 06:57:21;;;;;;;4.97;3.80;;;15.60;99.90;;;;;;4184207;28;20644;-71
2021/12/27 06:59:25;;;;;;;5.67;4.00;;;15.60;99.90;;;;;;4184103;28;20207;-71
2021/12/27 07:01:27;;;;;;;5.07;3.73;;;15.60;99.90;;;;;;4184088;28;20242;-72
2021/12/27 07:03:29;;;;;;;6.27;4.20;;;15.60;99.90;;;;;;4183791;28;20323;-71
2021/12/27 07:05:34;;;;;;;5.30;3.67;;;15.70;99.90;;;;;;4184039;28;20215;-71
2021/12/27 07:07:37;;;;;;;5.82;4.03;;;15.70;99.90;;;;;;4183700;28;20208;-71
2021/12/27 07:09:39;;;;;;;6.00;3.80;;;15.70;99.90;;;;;;4183403;28;20215;-71
2021/12/27 07:11:42;;;;;;;5.67;3.90;;;15.70;99.90;;;;;;4183056;28;20211;-71
2021/12/27 07:13:44;;;;;;;5.67;3.47;;;15.70;99.90;;;;;;4183067;28;20700;-71
2021/12/27 07:15:48;;;;;;;5.20;3.70;;;15.70;99.90;;;;;;4183291;28;20277;-71
2021/12/27 07:17:50;;;;;;;5.77;3.80;;;15.80;99.90;;;;;;4183516;28;20286;-71
2021/12/27 07:19:53;;;;;;;5.07;3.75;;;15.70;99.90;;;;;;4182843;28;20266;-71
2021/12/27 07:21:55;;;;;;;5.17;3.77;;;15.70;99.90;;;;;;4181305;28;20293;-71
2021/12/27 07:23:57;;;;;;;5.10;3.57;;;15.80;99.90;;;;;;4181339;28;20275;-72
2021/12/27 07:26:00;;;;;;;5.77;4.13;;;15.80;99.90;;;;;;4179454;28;20215;-71
2021/12/27 07:28:02;;;;;;;5.17;3.80;;;15.80;99.90;;;;;;4175831;28;20625;-72
2021/12/27 07:30:09;;;;;;;5.18;3.70;;;15.80;99.90;;;;;;4181429;28;20230;-71
2021/12/27 07:32:12;;;;;;;4.80;3.67;;;15.80;99.90;;;;;;4181153;28;21160;-71
2021/12/27 07:34:17;;;;;;;4.93;3.30;;;15.80;99.90;;;;;;4180917;28;20738;-71
2021/12/27 07:36:19;;;;;;;5.60;3.60;;;15.80;99.90;;;;;;4182245;28;20224;-71
2021/12/27 07:38:22;;;;;;;3.80;3.13;;;15.80;99.90;;;;;;4182596;28;20274;-71
2021/12/27 07:40:24;;;;;;;5.30;3.47;;;15.80;99.90;;;;;;4182272;28;20215;-71
2021/12/27 07:42:26;;;;;;;5.27;3.90;;;15.90;99.90;;;;;;4182196;28;20605;-71
2021/12/27 07:44:29;;;;;;;4.87;3.40;;;15.90;99.90;;;;;;4183080;28;20212;-71
2021/12/27 07:46:31;;;;;;;4.82;3.08;;;15.90;99.90;;;;;;4182613;28;20734;-71
2021/12/27 07:48:35;;;;;;;4.17;3.20;;;15.90;99.90;;;;;;4182712;28;20265;-71
2021/12/27 07:50:38;;;;;;;4.67;3.27;;;15.90;99.90;;;;;;4180496;28;20215;-72
2021/12/27 07:52:40;;;;;;;4.32;3.17;;;15.90;99.90;;;;;;4180965;28;20268;-71
2021/12/27 07:54:43;;;;;;;4.37;2.60;;;15.90;99.90;;;;;;4181771;28;20743;-71
2021/12/27 07:56:45;;;;;;;4.47;2.90;;;15.90;99.90;;;;;;4179941;28;20219;-72
2021/12/27 07:58:47;;;;;;;5.00;3.27;;;15.90;99.90;;;;;;4181508;28;20244;-71
2021/12/27 08:00:50;;;;;;;6.17;3.10;;;15.90;99.90;;;;;;4181560;28;20212;-71
2021/12/27 08:02:53;;;;;;;4.10;3.17;;;15.90;99.90;;;;;;4180848;28;20714;-71
2021/12/27 08:04:57;;;;;;;3.47;2.65;;;16.00;99.90;;;;;;4181239;28;20215;-72
2021/12/27 08:06:59;;;;;;;3.67;2.85;;;16.00;99.90;;;;;;4180023;28;20203;-71
2021/12/27 08:09:01;;;;;;;3.88;2.75;;;16.00;99.90;;;;;;4180647;28;20234;-72
2021/12/27 08:11:03;;;;;;;5.00;2.75;;;16.00;99.90;;;;;;4180801;28;20310;-72
2021/12/27 08:13:06;;;;;;;3.15;2.53;;;16.00;99.90;;;;;;4178233;28;20265;-71
2021/12/27 08:15:10;;;;;;;3.50;2.50;;;16.00;99.90;;;;;;4178709;28;20280;-71
2021/12/27 08:17:13;;;;;;;4.57;2.92;;;16.00;99.90;;;;;;4182573;28;20637;-72
2021/12/27 08:19:15;;;;;;;4.77;2.73;;;16.00;99.90;;;;;;4183379;28;20678;-71
2021/12/27 08:21:19;;;;;;;4.22;2.90;;;16.00;99.90;;;;;;4183448;28;20619;-72
2021/12/27 08:23:21;;;;;;;3.85;2.67;;;16.00;99.90;;;;;;4183306;28;20270;-71
2021/12/27 08:25:24;;;;;;;5.57;2.75;;;16.00;99.90;;;;;;4179554;28;20271;-71
2021/12/27 08:27:28;;;;;;;3.25;2.53;;;16.00;99.90;;;;;;4182955;28;20217;-71
2021/12/27 08:29:31;;;;;;;3.88;2.28;;;16.00;99.90;;;;;;4184393;28;20247;-72
2021/12/27 08:31:33;;;;;;;3.53;2.58;;;16.10;99.90;;;;;;4182682;28;20560;-72
2021/12/27 08:33:35;;;;;;;4.32;2.60;;;16.10;99.90;;;;;;4183448;28;20235;-72
2021/12/27 08:35:38;;;;;;;3.65;2.42;;;16.10;99.90;;;;;;4183658;28;20261;-72
2021/12/27 08:37:44;;;;;;;4.13;2.72;;;16.10;99.90;;;;;;4180538;28;20290;-72
2021/12/27 08:39:46;;;;;;;4.70;2.60;;;16.10;99.90;;;;;;4182944;28;20269;-72
2021/12/27 08:41:48;;;;;;;3.33;2.40;;;16.10;99.90;;;;;;4185427;28;20238;-72
2021/12/27 08:43:50;;;;;;;3.47;2.55;;;16.10;99.90;;;;;;4191742;28;20200;-71
2021/12/27 08:45:53;;;;;;;4.00;2.47;;;16.10;99.90;;;;;;4179385;28;20215;-72
2021/12/27 08:47:56;;;;;;;3.67;2.55;;;16.10;99.90;;;;;;4179658;28;20212;-72
2021/12/27 08:49:59;;;;;;;2.40;2.08;;;16.10;99.90;;;;;;4182615;28;20224;-71
2021/12/27 08:52:01;;;;;;;2.63;2.35;;;16.10;99.90;;;;;;4181952;28;20669;-72
2021/12/27 08:54:06;;;;;;;4.65;2.55;;;16.10;99.90;;;;;;4182800;28;20215;-71
2021/12/27 08:56:08;;;;;;;4.50;2.55;;;16.10;99.90;;;;;;4182446;28;20216;-72
2021/12/27 08:58:11;;;;;;;3.25;2.40;;;16.10;99.90;;;;;;4182286;28;20240;-72
2021/12/27 09:00:16;;;;;;;3.90;2.35;;;16.10;99.90;;;;;;4182010;28;20266;-71
2021/12/27 09:02:18;;;;;;;3.45;2.40;;;16.10;99.90;;;;;;4182158;28;20656;-71
2021/12/27 09:04:20;;;;;;;3.72;2.25;;;16.20;99.90;;;;;;4182139;28;20270;-72
2021/12/27 09:06:23;;;;;;;2.83;2.22;;;16.20;99.90;;;;;;4182052;28;20211;-72
2021/12/27 09:08:25;;;;;;;2.70;2.22;;;16.20;99.90;;;;;;4182225;28;20215;-71
2021/12/27 09:10:29;;;;;;;3.88;2.20;;;16.20;99.90;;;;;;4182160;28;20246;-72
2021/12/27 09:12:31;;;;;;;3.33;2.20;;;16.20;99.90;;;;;;4181882;28;20258;-72
2021/12/27 09:14:33;;;;;;;3.10;2.00;;;16.20;99.90;;;;;;4181973;28;20262;-72
2021/12/27 09:16:36;;;;;;;5.17;2.30;;;16.20;99.90;;;;;;4182241;28;20215;-71
2021/12/27 09:18:39;;;;;;;3.15;2.50;;;16.20;99.90;;;;;;4182094;28;20285;-73
2021/12/27 09:20:41;;;;;;;3.38;2.10;;;16.20;99.90;;;;;;4182052;28;20216;-72
2021/12/27 09:22:44;;;;;;;3.15;2.00;;;16.20;99.90;;;;;;4181877;28;20269;-72
2021/12/27 09:24:46;;;;;;;3.45;2.15;;;16.20;99.90;;;;;;4181467;28;20742;-72
2021/12/27 09:26:50;;;;;;;4.25;2.10;;;16.20;99.90;;;;;;4181995;28;20285;-72
2021/12/27 09:28:52;;;;;;;3.50;1.77;;;16.20;99.90;;;;;;4181779;28;20208;-72
2021/12/27 09:30:55;;;;;;;3.93;2.50;;;16.20;99.90;;;;;;4181624;28;20270;-72
2021/12/27 09:32:57;;;;;;;4.82;2.10;;;16.20;99.90;;;;;;4181666;28;20243;-72
2021/12/27 09:35:01;;;;;;;3.42;2.10;;;16.30;99.90;;;;;;4182358;28;20220;-74
2021/12/27 09:37:05;;;;;;;4.30;2.20;;;16.40;99.90;;;;;;4181955;28;20219;-74
2021/12/27 09:39:07;;;;;;;4.35;2.30;;;16.40;99.90;;;;;;4181697;28;20240;-74
2021/12/27 09:41:10;;;;;;;3.00;2.30;;;16.40;99.90;;;;;;4181540;28;20219;-74
2021/12/27 09:43:13;;;;;;;3.90;2.13;;;16.50;99.90;;;;;;4181492;28;20265;-74
2021/12/27 09:45:16;;;;;;;3.33;2.08;;;16.50;99.90;;;;;;4181450;28;20212;-74
2021/12/27 09:47:18;;;;;;;2.50;2.13;;;16.50;99.90;;;;;;4182042;28;20250;-74
2021/12/27 09:49:22;;;;;;;2.42;1.90;;;16.40;99.90;;;;;;4181702;28;20277;-75
2021/12/27 09:51:26;;;;;;;4.47;1.90;;;16.40;99.90;;;;;;4181969;28;20660;-75
2021/12/27 09:53:28;;;;;;;2.30;1.90;;;16.40;99.90;;;;;;4182037;28;20266;-75
2021/12/27 09:55:31;;;;;;;2.72;1.80;;;16.50;99.90;;;;;;4181965;28;20216;-75
2021/12/27 09:57:34;;;;;;;2.88;1.98;;;16.50;99.90;;;;;;4181743;28;20220;-74
2021/12/27 09:59:37;;;;;;;3.58;2.00;;;16.50;99.90;;;;;;4180722;28;20285;-75
2021/12/27 10:01:39;;;;;;;9.73;2.50;;;16.50;99.90;;;;;;4181631;28;20261;-75
2021/12/27 10:03:50;;;;;;;6.13;2.10;;;16.50;99.90;;;;;;4181831;28;20211;-75
2021/12/27 10:05:53;;;;;;;30.83;4.20;;;16.60;99.90;;;;;;4181595;28;20282;-76
2021/12/27 10:07:55;;;;;;;19.55;4.18;;;16.60;99.90;;;;;;4181696;28;20258;-75
2021/12/27 10:10:00;;;;;;;19.13;3.13;;;16.60;99.90;;;;;;4181856;28;20676;-76
2021/12/27 10:12:08;;;;;;;7.18;3.10;;;16.70;99.90;;;;;;4181717;28;20211;-75
2021/12/27 10:14:12;;;;;;;13.20;2.75;;;16.70;99.90;;;;;;4181313;28;20211;-75
2021/12/27 10:16:16;;;;;;;13.85;2.97;;;16.70;99.90;;;;;;4181346;28;20212;-75
2021/12/27 10:18:19;;;;;;;9.27;2.47;;;16.60;99.90;;;;;;4180948;28;20243;-75
2021/12/27 10:20:24;;;;;;;5.05;2.42;;;16.60;99.90;;;;;;4181096;28;20258;-76
2021/12/27 10:22:27;;;;;;;8.65;2.45;;;16.60;99.90;;;;;;4175963;28;20274;-75
2021/12/27 10:24:30;;;;;;;6.30;2.08;;;16.60;99.90;;;;;;4190741;28;20676;-75
2021/12/27 10:26:33;;;;;;;7.90;2.70;;;16.70;99.90;;;;;;4198216;28;20215;-75
2021/12/27 10:28:35;;;;;;;6.75;2.25;;;16.70;99.90;;;;;;4197777;28;20211;-75
2021/12/27 10:30:44;;;;;;;7.55;1.95;;;16.70;99.90;;;;;;4197735;28;20219;-75
2021/12/27 10:33:07;;;;;;;5.65;2.17;;;16.70;99.90;;;;;;4197500;28;20239;-75
2021/12/27 10:35:11;;;;;;;7.82;2.35;;;16.80;99.90;;;;;;4197545;28;20215;-75
2021/12/27 10:37:19;;;;;;;6.57;2.50;;;16.80;99.90;;;;;;4197680;28;20215;-75
2021/12/27 10:39:21;;;;;;;6.28;1.80;;;16.80;99.90;;;;;;4197211;28;20234;-75
2021/12/27 10:41:24;;;;;;;5.43;1.95;;;16.80;99.90;;;;;;4197411;28;20729;-75